sensor_id;sensor_type;location;lat;lon;timestamp;P1;durP1;ratioP1;P2;durP2;ratioP2
64186;SDS011;50491;39.484;-8.540;2023-06-22T00:01:07;4.82;;;2.67;;
64186;SDS011;50491;39.484;-8.540;2023-06-22T00:03:07;7.88;;;3.40;;
64186;SDS011;50491;39.484;-8.540;2023-06-22T00:05:08;9.65;;;3.83;;
64186;SDS011;50491;39.484;-8.540;2023-06-22T00:07:09;7.70;;;2.85;;
64186;SDS011;50491;39.484;-8.540;2023-06-22T00:09:10;13.25;;;3.65;;
64186;SDS011;50491;39.484;-8.540;2023-06-22T00:11:28;11.70;;;3.22;;
64186;SDS011;50491;39.484;-8.540;2023-06-22T00:13:29;6.28;;;2.90;;
64186;SDS011;50491;39.484;-8.540;2023-06-22T00:15:48;11.23;;;2.88;;
64186;SDS011;50491;39.484;-8.540;2023-06-22T00:18:08;7.93;;;3.15;;
64186;SDS011;50491;39.484;-8.540;2023-06-22T00:20:34;5.97;;;3.55;;
64186;SDS011;50491;39.484;-8.540;2023-06-22T00:22:37;9.55;;;3.45;;
64186;SDS011;50491;39.484;-8.540;2023-06-22T00:24:57;7.47;;;3.55;;
64186;SDS011;50491;39.484;-8.540;2023-06-22T00:26:58;9.05;;;3.55;;
64186;SDS011;50491;39.484;-8.540;2023-06-22T00:29:17;6.80;;;3.53;;
64186;SDS011;50491;39.484;-8.540;2023-06-22T00:31:37;7.20;;;3.75;;
64186;SDS011;50491;39.484;-8.540;2023-06-22T00:33:38;6.00;;;4.43;;
64186;SDS011;50491;39.484;-8.540;2023-06-22T00:35:39;6.28;;;3.50;;
64186;SDS011;50491;39.484;-8.540;2023-06-22T00:37:42;5.20;;;3.50;;
64186;SDS011;50491;39.484;-8.540;2023-06-22T00:39:43;10.23;;;3.22;;
64186;SDS011;50491;39.484;-8.540;2023-06-22T00:41:45;7.43;;;3.50;;
64186;SDS011;50491;39.484;-8.540;2023-06-22T00:44:04;7.68;;;3.38;;
64186;SDS011;50491;39.484;-8.540;2023-06-22T00:46:06;6.28;;;3.80;;
64186;SDS011;50491;39.484;-8.540;2023-06-22T00:48:07;8.32;;;3.83;;
64186;SDS011;50491;39.484;-8.540;2023-06-22T00:50:08;8.20;;;3.92;;
64186;SDS011;50491;39.484;-8.540;2023-06-22T00:52:10;7.78;;;3.50;;
64186;SDS011;50491;39.484;-8.540;2023-06-22T00:59:30;7.07;;;3.67;;
64186;SDS011;50491;39.484;-8.540;2023-06-22T01:01:30;10.48;;;4.65;;
64186;SDS011;50491;39.484;-8.540;2023-06-22T01:03:31;5.47;;;3.33;;
64186;SDS011;50491;39.484;-8.540;2023-06-22T01:05:35;9.45;;;4.03;;
64186;SDS011;50491;39.484;-8.540;2023-06-22T01:10:17;7.38;;;3.75;;
64186;SDS011;50491;39.484;-8.540;2023-06-22T01:12:21;7.85;;;3.67;;
64186;SDS011;50491;39.484;-8.540;2023-06-22T01:14:31;5.90;;;3.47;;
64186;SDS011;50491;39.484;-8.540;2023-06-22T01:16:44;14.43;;;4.32;;
64186;SDS011;50491;39.484;-8.540;2023-06-22T01:24:30;11.75;;;4.28;;
64186;SDS011;50491;39.484;-8.540;2023-06-22T01:26:38;9.75;;;3.53;;
64186;SDS011;50491;39.484;-8.540;2023-06-22T01:31:20;8.40;;;3.65;;
64186;SDS011;50491;39.484;-8.540;2023-06-22T01:33:43;14.95;;;4.35;;
64186;SDS011;50491;39.484;-8.540;2023-06-22T01:38:25;13.60;;;5.05;;
64186;SDS011;50491;39.484;-8.540;2023-06-22T01:42:46;10.25;;;4.65;;
64186;SDS011;50491;39.484;-8.540;2023-06-22T01:45:10;6.45;;;3.42;;
64186;SDS011;50491;39.484;-8.540;2023-06-22T01:47:11;6.82;;;3.92;;
64186;SDS011;50491;39.484;-8.540;2023-06-22T01:49:14;6.50;;;3.60;;
64186;SDS011;50491;39.484;-8.540;2023-06-22T01:51:15;9.07;;;3.97;;
64186;SDS011;50491;39.484;-8.540;2023-06-22T01:53:16;10.93;;;4.45;;
64186;SDS011;50491;39.484;-8.540;2023-06-22T01:55:16;7.03;;;4.20;;
64186;SDS011;50491;39.484;-8.540;2023-06-22T01:57:35;8.38;;;3.65;;
64186;SDS011;50491;39.484;-8.540;2023-06-22T01:59:37;10.80;;;4.18;;
64186;SDS011;50491;39.484;-8.540;2023-06-22T02:02:00;8.27;;;3.80;;
64186;SDS011;50491;39.484;-8.540;2023-06-22T02:04:05;7.93;;;3.60;;
64186;SDS011;50491;39.484;-8.540;2023-06-22T02:06:21;6.82;;;3.67;;
64186;SDS011;50491;39.484;-8.540;2023-06-22T02:08:48;6.15;;;3.20;;
64186;SDS011;50491;39.484;-8.540;2023-06-22T02:11:09;8.13;;;3.78;;
64186;SDS011;50491;39.484;-8.540;2023-06-22T02:13:10;10.25;;;3.95;;
64186;SDS011;50491;39.484;-8.540;2023-06-22T02:15:13;10.80;;;4.22;;
64186;SDS011;50491;39.484;-8.540;2023-06-22T02:17:16;5.40;;;3.67;;
64186;SDS011;50491;39.484;-8.540;2023-06-22T02:19:36;11.57;;;4.57;;
64186;SDS011;50491;39.484;-8.540;2023-06-22T02:21:37;8.93;;;4.13;;
64186;SDS011;50491;39.484;-8.540;2023-06-22T02:23:38;7.00;;;3.75;;
64186;SDS011;50491;39.484;-8.540;2023-06-22T02:25:57;9.40;;;3.67;;
64186;SDS011;50491;39.484;-8.540;2023-06-22T02:28:16;8.18;;;3.67;;
64186;SDS011;50491;39.484;-8.540;2023-06-22T02:30:18;5.85;;;3.22;;
64186;SDS011;50491;39.484;-8.540;2023-06-22T02:32:25;12.93;;;3.50;;
64186;SDS011;50491;39.484;-8.540;2023-06-22T02:36:51;9.45;;;3.25;;
64186;SDS011;50491;39.484;-8.540;2023-06-22T02:39:10;8.20;;;3.42;;
64186;SDS011;50491;39.484;-8.540;2023-06-22T02:41:30;7.07;;;3.30;;
64186;SDS011;50491;39.484;-8.540;2023-06-22T02:43:31;8.23;;;3.55;;
64186;SDS011;50491;39.484;-8.540;2023-06-22T02:45:50;11.18;;;3.25;;
64186;SDS011;50491;39.484;-8.540;2023-06-22T02:48:09;7.47;;;3.80;;
64186;SDS011;50491;39.484;-8.540;2023-06-22T02:50:13;8.43;;;3.88;;
64186;SDS011;50491;39.484;-8.540;2023-06-22T02:52:33;8.93;;;3.67;;
64186;SDS011;50491;39.484;-8.540;2023-06-22T02:54:53;6.25;;;3.78;;
64186;SDS011;50491;39.484;-8.540;2023-06-22T02:56:53;5.72;;;3.50;;
64186;SDS011;50491;39.484;-8.540;2023-06-22T02:59:13;6.60;;;4.05;;
64186;SDS011;50491;39.484;-8.540;2023-06-22T03:01:14;9.20;;;3.20;;
64186;SDS011;50491;39.484;-8.540;2023-06-22T03:06:10;8.57;;;3.70;;
64186;SDS011;50491;39.484;-8.540;2023-06-22T03:08:32;10.00;;;3.58;;
64186;SDS011;50491;39.484;-8.540;2023-06-22T03:19:10;9.52;;;3.88;;
64186;SDS011;50491;39.484;-8.540;2023-06-22T03:21:31;6.65;;;3.85;;
64186;SDS011;50491;39.484;-8.540;2023-06-22T03:23:50;10.02;;;4.05;;
64186;SDS011;50491;39.484;-8.540;2023-06-22T03:26:17;5.75;;;3.45;;
64186;SDS011;50491;39.484;-8.540;2023-06-22T03:28:37;7.20;;;3.33;;
64186;SDS011;50491;39.484;-8.540;2023-06-22T03:30:59;6.78;;;3.75;;
64186;SDS011;50491;39.484;-8.540;2023-06-22T03:33:24;7.45;;;3.50;;
64186;SDS011;50491;39.484;-8.540;2023-06-22T03:35:25;6.45;;;3.22;;
64186;SDS011;50491;39.484;-8.540;2023-06-22T03:37:51;7.72;;;3.40;;
64186;SDS011;50491;39.484;-8.540;2023-06-22T03:39:58;5.18;;;3.20;;
64186;SDS011;50491;39.484;-8.540;2023-06-22T03:44:18;9.00;;;4.07;;
64186;SDS011;50491;39.484;-8.540;2023-06-22T03:46:19;6.82;;;3.63;;
64186;SDS011;50491;39.484;-8.540;2023-06-22T03:48:20;12.10;;;4.05;;
64186;SDS011;50491;39.484;-8.540;2023-06-22T03:50:21;9.20;;;3.70;;
64186;SDS011;50491;39.484;-8.540;2023-06-22T03:55:00;7.68;;;3.80;;
64186;SDS011;50491;39.484;-8.540;2023-06-22T03:57:19;5.35;;;3.00;;
64186;SDS011;50491;39.484;-8.540;2023-06-22T04:01:58;7.18;;;3.47;;
64186;SDS011;50491;39.484;-8.540;2023-06-22T04:06:42;9.13;;;3.33;;
64186;SDS011;50491;39.484;-8.540;2023-06-22T04:09:02;10.43;;;3.53;;
64186;SDS011;50491;39.484;-8.540;2023-06-22T04:11:03;7.43;;;3.80;;
64186;SDS011;50491;39.484;-8.540;2023-06-22T04:13:03;4.10;;;2.88;;
64186;SDS011;50491;39.484;-8.540;2023-06-22T04:15:04;7.22;;;3.67;;
64186;SDS011;50491;39.484;-8.540;2023-06-22T04:17:24;9.57;;;3.92;;
64186;SDS011;50491;39.484;-8.540;2023-06-22T04:29:40;5.32;;;3.28;;
64186;SDS011;50491;39.484;-8.540;2023-06-22T04:31:48;5.90;;;3.22;;
64186;SDS011;50491;39.484;-8.540;2023-06-22T04:33:50;11.55;;;3.75;;
64186;SDS011;50491;39.484;-8.540;2023-06-22T04:35:51;6.93;;;3.30;;
64186;SDS011;50491;39.484;-8.540;2023-06-22T04:38:12;6.10;;;3.38;;
64186;SDS011;50491;39.484;-8.540;2023-06-22T04:40:13;7.70;;;2.90;;
64186;SDS011;50491;39.484;-8.540;2023-06-22T04:42:14;7.65;;;3.35;;
64186;SDS011;50491;39.484;-8.540;2023-06-22T04:49:12;6.30;;;3.85;;
64186;SDS011;50491;39.484;-8.540;2023-06-22T04:51:31;9.15;;;4.35;;
64186;SDS011;50491;39.484;-8.540;2023-06-22T05:01:54;10.32;;;3.83;;
64186;SDS011;50491;39.484;-8.540;2023-06-22T05:04:21;9.15;;;3.90;;
64186;SDS011;50491;39.484;-8.540;2023-06-22T05:06:23;12.10;;;3.45;;
64186;SDS011;50491;39.484;-8.540;2023-06-22T05:08:27;6.18;;;3.38;;
64186;SDS011;50491;39.484;-8.540;2023-06-22T05:13:06;10.45;;;4.55;;
64186;SDS011;50491;39.484;-8.540;2023-06-22T05:15:07;7.07;;;3.58;;
64186;SDS011;50491;39.484;-8.540;2023-06-22T05:17:13;6.68;;;3.53;;
64186;SDS011;50491;39.484;-8.540;2023-06-22T05:22:10;10.55;;;3.40;;
64186;SDS011;50491;39.484;-8.540;2023-06-22T05:27:09;9.07;;;3.85;;
64186;SDS011;50491;39.484;-8.540;2023-06-22T05:32:07;10.40;;;3.42;;
64186;SDS011;50491;39.484;-8.540;2023-06-22T05:34:26;3.60;;;2.80;;
64186;SDS011;50491;39.484;-8.540;2023-06-22T05:36:27;14.30;;;3.83;;
64186;SDS011;50491;39.484;-8.540;2023-06-22T05:38:27;7.32;;;3.47;;
64186;SDS011;50491;39.484;-8.540;2023-06-22T05:43:14;10.80;;;3.35;;
64186;SDS011;50491;39.484;-8.540;2023-06-22T05:45:33;7.32;;;3.40;;
64186;SDS011;50491;39.484;-8.540;2023-06-22T05:47:34;10.15;;;4.40;;
64186;SDS011;50491;39.484;-8.540;2023-06-22T05:49:35;11.15;;;3.72;;
64186;SDS011;50491;39.484;-8.540;2023-06-22T05:51:35;7.20;;;3.05;;
64186;SDS011;50491;39.484;-8.540;2023-06-22T05:53:36;6.70;;;3.45;;
64186;SDS011;50491;39.484;-8.540;2023-06-22T05:55:55;8.10;;;3.30;;
64186;SDS011;50491;39.484;-8.540;2023-06-22T05:57:56;5.70;;;3.33;;
64186;SDS011;50491;39.484;-8.540;2023-06-22T05:59:57;9.27;;;3.67;;
64186;SDS011;50491;39.484;-8.540;2023-06-22T06:02:16;14.55;;;3.53;;
64186;SDS011;50491;39.484;-8.540;2023-06-22T06:04:38;7.07;;;3.30;;
64186;SDS011;50491;39.484;-8.540;2023-06-22T06:06:39;5.88;;;3.13;;
64186;SDS011;50491;39.484;-8.540;2023-06-22T06:08:44;4.28;;;3.40;;
64186;SDS011;50491;39.484;-8.540;2023-06-22T06:11:03;6.80;;;3.10;;
64186;SDS011;50491;39.484;-8.540;2023-06-22T06:13:04;8.70;;;3.95;;
64186;SDS011;50491;39.484;-8.540;2023-06-22T06:15:04;5.78;;;2.70;;
64186;SDS011;50491;39.484;-8.540;2023-06-22T06:17:24;7.07;;;3.60;;
64186;SDS011;50491;39.484;-8.540;2023-06-22T06:19:24;9.57;;;3.85;;
64186;SDS011;50491;39.484;-8.540;2023-06-22T06:21:25;7.45;;;3.42;;
64186;SDS011;50491;39.484;-8.540;2023-06-22T06:23:44;4.57;;;2.95;;
64186;SDS011;50491;39.484;-8.540;2023-06-22T06:26:04;6.43;;;3.45;;
64186;SDS011;50491;39.484;-8.540;2023-06-22T06:28:25;5.63;;;3.50;;
64186;SDS011;50491;39.484;-8.540;2023-06-22T06:30:26;6.82;;;2.97;;
64186;SDS011;50491;39.484;-8.540;2023-06-22T06:32:27;7.65;;;3.60;;
64186;SDS011;50491;39.484;-8.540;2023-06-22T06:34:27;7.70;;;2.80;;
64186;SDS011;50491;39.484;-8.540;2023-06-22T06:36:28;10.07;;;4.03;;
64186;SDS011;50491;39.484;-8.540;2023-06-22T06:38:31;5.43;;;3.30;;
64186;SDS011;50491;39.484;-8.540;2023-06-22T06:40:32;10.32;;;3.95;;
64186;SDS011;50491;39.484;-8.540;2023-06-22T06:42:33;13.90;;;3.90;;
64186;SDS011;50491;39.484;-8.540;2023-06-22T06:44:33;6.13;;;3.40;;
64186;SDS011;50491;39.484;-8.540;2023-06-22T06:46:35;10.55;;;3.20;;
64186;SDS011;50491;39.484;-8.540;2023-06-22T06:48:35;6.47;;;3.83;;
64186;SDS011;50491;39.484;-8.540;2023-06-22T06:50:36;8.43;;;3.47;;
64186;SDS011;50491;39.484;-8.540;2023-06-22T06:52:37;4.70;;;2.97;;
64186;SDS011;50491;39.484;-8.540;2023-06-22T06:54:56;9.38;;;3.70;;
64186;SDS011;50491;39.484;-8.540;2023-06-22T06:57:15;9.55;;;3.92;;
64186;SDS011;50491;39.484;-8.540;2023-06-22T06:59:16;6.80;;;3.50;;
64186;SDS011;50491;39.484;-8.540;2023-06-22T07:01:17;7.65;;;3.60;;
64186;SDS011;50491;39.484;-8.540;2023-06-22T07:03:17;10.25;;;4.13;;
64186;SDS011;50491;39.484;-8.540;2023-06-22T07:05:37;9.60;;;3.60;;
64186;SDS011;50491;39.484;-8.540;2023-06-22T07:07:37;4.75;;;3.03;;
64186;SDS011;50491;39.484;-8.540;2023-06-22T07:09:38;6.32;;;3.83;;
64186;SDS011;50491;39.484;-8.540;2023-06-22T07:11:39;6.10;;;3.65;;
64186;SDS011;50491;39.484;-8.540;2023-06-22T07:13:58;6.38;;;3.40;;
64186;SDS011;50491;39.484;-8.540;2023-06-22T07:16:25;8.88;;;3.83;;
64186;SDS011;50491;39.484;-8.540;2023-06-22T07:18:28;7.15;;;3.88;;
64186;SDS011;50491;39.484;-8.540;2023-06-22T07:20:47;9.75;;;4.45;;
64186;SDS011;50491;39.484;-8.540;2023-06-22T07:22:47;8.20;;;5.05;;
64186;SDS011;50491;39.484;-8.540;2023-06-22T07:24:48;12.20;;;4.82;;
64186;SDS011;50491;39.484;-8.540;2023-06-22T07:26:50;10.60;;;3.92;;
64186;SDS011;50491;39.484;-8.540;2023-06-22T07:28:51;6.03;;;3.92;;
64186;SDS011;50491;39.484;-8.540;2023-06-22T07:30:51;8.65;;;3.78;;
64186;SDS011;50491;39.484;-8.540;2023-06-22T07:33:11;7.32;;;3.78;;
64186;SDS011;50491;39.484;-8.540;2023-06-22T07:35:30;9.02;;;3.92;;
64186;SDS011;50491;39.484;-8.540;2023-06-22T07:37:31;7.88;;;3.90;;
64186;SDS011;50491;39.484;-8.540;2023-06-22T07:39:33;13.60;;;4.07;;
64186;SDS011;50491;39.484;-8.540;2023-06-22T07:41:34;7.60;;;4.13;;
64186;SDS011;50491;39.484;-8.540;2023-06-22T07:43:34;6.50;;;3.38;;
64186;SDS011;50491;39.484;-8.540;2023-06-22T07:45:37;7.20;;;3.72;;
64186;SDS011;50491;39.484;-8.540;2023-06-22T07:47:40;8.85;;;4.05;;
64186;SDS011;50491;39.484;-8.540;2023-06-22T07:49:40;7.88;;;3.97;;
64186;SDS011;50491;39.484;-8.540;2023-06-22T07:51:41;6.20;;;3.75;;
64186;SDS011;50491;39.484;-8.540;2023-06-22T07:53:42;10.15;;;4.03;;
64186;SDS011;50491;39.484;-8.540;2023-06-22T08:01:00;4.50;;;3.17;;
64186;SDS011;50491;39.484;-8.540;2023-06-22T08:03:18;7.90;;;3.90;;
64186;SDS011;50491;39.484;-8.540;2023-06-22T08:05:19;11.30;;;4.70;;
64186;SDS011;50491;39.484;-8.540;2023-06-22T08:07:20;8.48;;;3.10;;
64186;SDS011;50491;39.484;-8.540;2023-06-22T08:09:39;6.30;;;3.63;;
64186;SDS011;50491;39.484;-8.540;2023-06-22T08:12:05;8.65;;;3.63;;
64186;SDS011;50491;39.484;-8.540;2023-06-22T08:14:06;10.45;;;6.45;;
64186;SDS011;50491;39.484;-8.540;2023-06-22T08:16:07;11.85;;;4.10;;
64186;SDS011;50491;39.484;-8.540;2023-06-22T08:18:07;10.02;;;3.88;;
64186;SDS011;50491;39.484;-8.540;2023-06-22T08:20:08;5.75;;;3.58;;
64186;SDS011;50491;39.484;-8.540;2023-06-22T08:22:11;3.33;;;2.78;;
64186;SDS011;50491;39.484;-8.540;2023-06-22T08:24:11;7.45;;;3.10;;
64186;SDS011;50491;39.484;-8.540;2023-06-22T08:26:13;6.18;;;3.55;;
64186;SDS011;50491;39.484;-8.540;2023-06-22T08:28:15;7.38;;;2.97;;
64186;SDS011;50491;39.484;-8.540;2023-06-22T08:30:15;5.68;;;4.00;;
64186;SDS011;50491;39.484;-8.540;2023-06-22T08:32:18;5.97;;;3.22;;
64186;SDS011;50491;39.484;-8.540;2023-06-22T08:34:37;13.82;;;3.55;;
64186;SDS011;50491;39.484;-8.540;2023-06-22T08:36:42;7.57;;;2.97;;
64186;SDS011;50491;39.484;-8.540;2023-06-22T08:38:43;8.02;;;2.90;;
64186;SDS011;50491;39.484;-8.540;2023-06-22T08:40:44;6.13;;;2.88;;
64186;SDS011;50491;39.484;-8.540;2023-06-22T08:42:45;4.32;;;2.90;;
64186;SDS011;50491;39.484;-8.540;2023-06-22T08:44:48;8.68;;;2.97;;
64186;SDS011;50491;39.484;-8.540;2023-06-22T08:47:07;7.28;;;3.83;;
64186;SDS011;50491;39.484;-8.540;2023-06-22T08:49:07;6.90;;;2.92;;
64186;SDS011;50491;39.484;-8.540;2023-06-22T08:51:09;5.63;;;3.08;;
64186;SDS011;50491;39.484;-8.540;2023-06-22T08:53:29;9.70;;;3.40;;
64186;SDS011;50491;39.484;-8.540;2023-06-22T08:55:29;5.38;;;2.65;;
64186;SDS011;50491;39.484;-8.540;2023-06-22T08:57:49;7.32;;;3.55;;
64186;SDS011;50491;39.484;-8.540;2023-06-22T08:59:49;6.25;;;2.88;;
64186;SDS011;50491;39.484;-8.540;2023-06-22T09:01:52;8.88;;;2.92;;
64186;SDS011;50491;39.484;-8.540;2023-06-22T09:03:53;4.78;;;2.78;;
64186;SDS011;50491;39.484;-8.540;2023-06-22T09:05:58;5.32;;;2.75;;
64186;SDS011;50491;39.484;-8.540;2023-06-22T09:08:05;4.22;;;2.55;;
64186;SDS011;50491;39.484;-8.540;2023-06-22T09:10:06;10.05;;;4.18;;
64186;SDS011;50491;39.484;-8.540;2023-06-22T09:12:07;4.70;;;3.00;;
64186;SDS011;50491;39.484;-8.540;2023-06-22T09:14:08;4.97;;;2.75;;
64186;SDS011;50491;39.484;-8.540;2023-06-22T09:16:09;5.30;;;3.08;;
64186;SDS011;50491;39.484;-8.540;2023-06-22T09:18:10;8.75;;;2.95;;
64186;SDS011;50491;39.484;-8.540;2023-06-22T09:20:11;7.05;;;2.78;;
64186;SDS011;50491;39.484;-8.540;2023-06-22T09:22:12;6.05;;;2.90;;
64186;SDS011;50491;39.484;-8.540;2023-06-22T09:24:13;4.88;;;2.60;;
64186;SDS011;50491;39.484;-8.540;2023-06-22T09:26:32;3.83;;;2.75;;
64186;SDS011;50491;39.484;-8.540;2023-06-22T09:28:52;4.15;;;2.70;;
64186;SDS011;50491;39.484;-8.540;2023-06-22T09:31:11;6.65;;;3.28;;
64186;SDS011;50491;39.484;-8.540;2023-06-22T09:33:12;4.88;;;2.75;;
64186;SDS011;50491;39.484;-8.540;2023-06-22T09:35:12;4.40;;;3.03;;
64186;SDS011;50491;39.484;-8.540;2023-06-22T09:37:13;5.60;;;3.70;;
64186;SDS011;50491;39.484;-8.540;2023-06-22T09:39:33;14.77;;;3.05;;
64186;SDS011;50491;39.484;-8.540;2023-06-22T09:41:33;6.30;;;2.97;;
64186;SDS011;50491;39.484;-8.540;2023-06-22T09:43:34;3.85;;;2.65;;
64186;SDS011;50491;39.484;-8.540;2023-06-22T09:45:54;6.10;;;3.63;;
64186;SDS011;50491;39.484;-8.540;2023-06-22T09:47:55;4.65;;;2.72;;
64186;SDS011;50491;39.484;-8.540;2023-06-22T09:50:14;5.40;;;2.72;;
64186;SDS011;50491;39.484;-8.540;2023-06-22T09:52:33;7.13;;;3.15;;
64186;SDS011;50491;39.484;-8.540;2023-06-22T09:54:52;4.90;;;2.97;;
64186;SDS011;50491;39.484;-8.540;2023-06-22T09:57:11;4.25;;;2.78;;
64186;SDS011;50491;39.484;-8.540;2023-06-22T09:59:31;5.57;;;3.53;;
64186;SDS011;50491;39.484;-8.540;2023-06-22T10:01:50;5.55;;;2.72;;
64186;SDS011;50491;39.484;-8.540;2023-06-22T10:03:52;7.22;;;2.95;;
64186;SDS011;50491;39.484;-8.540;2023-06-22T10:05:56;4.57;;;2.80;;
64186;SDS011;50491;39.484;-8.540;2023-06-22T10:08:14;7.10;;;3.45;;
64186;SDS011;50491;39.484;-8.540;2023-06-22T10:10:15;9.43;;;2.97;;
64186;SDS011;50491;39.484;-8.540;2023-06-22T10:12:16;6.63;;;2.70;;
64186;SDS011;50491;39.484;-8.540;2023-06-22T10:14:35;5.38;;;2.85;;
64186;SDS011;50491;39.484;-8.540;2023-06-22T10:16:36;6.57;;;2.67;;
64186;SDS011;50491;39.484;-8.540;2023-06-22T10:18:36;5.80;;;3.08;;
64186;SDS011;50491;39.484;-8.540;2023-06-22T10:20:37;4.72;;;2.63;;
64186;SDS011;50491;39.484;-8.540;2023-06-22T10:22:42;5.78;;;2.75;;
64186;SDS011;50491;39.484;-8.540;2023-06-22T10:25:02;6.55;;;2.90;;
64186;SDS011;50491;39.484;-8.540;2023-06-22T10:27:02;5.47;;;3.00;;
64186;SDS011;50491;39.484;-8.540;2023-06-22T10:29:03;8.98;;;2.97;;
64186;SDS011;50491;39.484;-8.540;2023-06-22T10:31:04;5.97;;;2.70;;
64186;SDS011;50491;39.484;-8.540;2023-06-22T10:33:33;8.90;;;3.13;;
64186;SDS011;50491;39.484;-8.540;2023-06-22T10:35:52;6.60;;;3.80;;
64186;SDS011;50491;39.484;-8.540;2023-06-22T10:38:11;4.72;;;2.55;;
64186;SDS011;50491;39.484;-8.540;2023-06-22T10:40:30;5.93;;;2.58;;
64186;SDS011;50491;39.484;-8.540;2023-06-22T10:42:31;4.93;;;3.22;;
64186;SDS011;50491;39.484;-8.540;2023-06-22T10:44:31;6.82;;;2.70;;
64186;SDS011;50491;39.484;-8.540;2023-06-22T10:46:32;4.82;;;3.00;;
64186;SDS011;50491;39.484;-8.540;2023-06-22T10:48:33;5.28;;;3.10;;
64186;SDS011;50491;39.484;-8.540;2023-06-22T10:50:52;4.68;;;2.50;;
64186;SDS011;50491;39.484;-8.540;2023-06-22T10:52:59;5.32;;;2.65;;
64186;SDS011;50491;39.484;-8.540;2023-06-22T10:58:05;6.05;;;2.85;;
64186;SDS011;50491;39.484;-8.540;2023-06-22T11:00:06;4.40;;;2.50;;
64186;SDS011;50491;39.484;-8.540;2023-06-22T11:02:08;3.33;;;2.40;;
64186;SDS011;50491;39.484;-8.540;2023-06-22T11:04:09;5.25;;;3.47;;
64186;SDS011;50491;39.484;-8.540;2023-06-22T11:06:28;5.22;;;2.20;;
64186;SDS011;50491;39.484;-8.540;2023-06-22T11:08:48;7.15;;;2.75;;
64186;SDS011;50491;39.484;-8.540;2023-06-22T11:10:48;4.32;;;2.42;;
64186;SDS011;50491;39.484;-8.540;2023-06-22T11:12:49;5.85;;;2.45;;
64186;SDS011;50491;39.484;-8.540;2023-06-22T11:15:08;4.57;;;2.63;;
64186;SDS011;50491;39.484;-8.540;2023-06-22T11:17:28;8.38;;;2.60;;
64186;SDS011;50491;39.484;-8.540;2023-06-22T11:19:28;3.78;;;2.00;;
64186;SDS011;50491;39.484;-8.540;2023-06-22T11:21:29;6.22;;;3.25;;
64186;SDS011;50491;39.484;-8.540;2023-06-22T11:23:30;4.45;;;2.80;;
64186;SDS011;50491;39.484;-8.540;2023-06-22T11:25:30;4.38;;;2.22;;
64186;SDS011;50491;39.484;-8.540;2023-06-22T11:27:31;5.65;;;2.90;;
64186;SDS011;50491;39.484;-8.540;2023-06-22T11:29:31;4.40;;;2.72;;
64186;SDS011;50491;39.484;-8.540;2023-06-22T11:31:51;4.05;;;2.25;;
64186;SDS011;50491;39.484;-8.540;2023-06-22T11:33:51;4.78;;;2.50;;
64186;SDS011;50491;39.484;-8.540;2023-06-22T11:35:52;4.28;;;2.20;;
64186;SDS011;50491;39.484;-8.540;2023-06-22T11:37:53;5.07;;;2.15;;
64186;SDS011;50491;39.484;-8.540;2023-06-22T11:39:54;5.18;;;2.40;;
64186;SDS011;50491;39.484;-8.540;2023-06-22T11:42:13;4.20;;;2.00;;
64186;SDS011;50491;39.484;-8.540;2023-06-22T11:44:32;9.02;;;2.28;;
64186;SDS011;50491;39.484;-8.540;2023-06-22T11:46:51;5.85;;;2.00;;
64186;SDS011;50491;39.484;-8.540;2023-06-22T11:48:52;3.20;;;1.73;;
64186;SDS011;50491;39.484;-8.540;2023-06-22T11:50:53;6.63;;;2.38;;
64186;SDS011;50491;39.484;-8.540;2023-06-22T11:53:30;3.50;;;1.58;;
64186;SDS011;50491;39.484;-8.540;2023-06-22T11:55:39;2.35;;;1.98;;
64186;SDS011;50491;39.484;-8.540;2023-06-22T11:57:58;3.08;;;1.95;;
64186;SDS011;50491;39.484;-8.540;2023-06-22T12:00:03;5.85;;;2.15;;
64186;SDS011;50491;39.484;-8.540;2023-06-22T12:02:25;5.38;;;2.28;;
64186;SDS011;50491;39.484;-8.540;2023-06-22T12:04:25;3.28;;;1.98;;
64186;SDS011;50491;39.484;-8.540;2023-06-22T12:06:45;5.03;;;2.10;;
64186;SDS011;50491;39.484;-8.540;2023-06-22T12:08:46;2.72;;;1.63;;
64186;SDS011;50491;39.484;-8.540;2023-06-22T12:11:05;3.15;;;1.58;;
64186;SDS011;50491;39.484;-8.540;2023-06-22T12:13:06;4.63;;;2.70;;
64186;SDS011;50491;39.484;-8.540;2023-06-22T12:15:06;3.22;;;1.80;;
64186;SDS011;50491;39.484;-8.540;2023-06-22T12:17:26;2.63;;;1.48;;
64186;SDS011;50491;39.484;-8.540;2023-06-22T12:19:26;3.15;;;1.95;;
64186;SDS011;50491;39.484;-8.540;2023-06-22T12:21:27;4.28;;;1.92;;
64186;SDS011;50491;39.484;-8.540;2023-06-22T12:23:29;4.75;;;1.98;;
64186;SDS011;50491;39.484;-8.540;2023-06-22T12:25:29;3.55;;;1.77;;
64186;SDS011;50491;39.484;-8.540;2023-06-22T12:27:30;2.55;;;1.85;;
64186;SDS011;50491;39.484;-8.540;2023-06-22T12:29:31;2.88;;;1.73;;
64186;SDS011;50491;39.484;-8.540;2023-06-22T12:31:32;2.83;;;1.70;;
64186;SDS011;50491;39.484;-8.540;2023-06-22T12:33:51;3.13;;;2.08;;
64186;SDS011;50491;39.484;-8.540;2023-06-22T12:35:52;3.47;;;1.80;;
64186;SDS011;50491;39.484;-8.540;2023-06-22T12:37:52;2.75;;;1.85;;
64186;SDS011;50491;39.484;-8.540;2023-06-22T12:39:54;2.10;;;1.60;;
64186;SDS011;50491;39.484;-8.540;2023-06-22T12:42:13;3.33;;;1.73;;
64186;SDS011;50491;39.484;-8.540;2023-06-22T12:44:33;2.92;;;1.95;;
64186;SDS011;50491;39.484;-8.540;2023-06-22T12:46:53;2.10;;;1.58;;
64186;SDS011;50491;39.484;-8.540;2023-06-22T12:48:53;4.38;;;2.33;;
64186;SDS011;50491;39.484;-8.540;2023-06-22T12:50:55;4.65;;;2.00;;
64186;SDS011;50491;39.484;-8.540;2023-06-22T12:53:14;3.80;;;2.10;;
64186;SDS011;50491;39.484;-8.540;2023-06-22T12:55:33;4.43;;;2.17;;
64186;SDS011;50491;39.484;-8.540;2023-06-22T12:57:52;4.00;;;2.22;;
64186;SDS011;50491;39.484;-8.540;2023-06-22T13:00:11;2.80;;;2.03;;
64186;SDS011;50491;39.484;-8.540;2023-06-22T13:02:31;3.15;;;2.03;;
64186;SDS011;50491;39.484;-8.540;2023-06-22T13:04:50;2.47;;;1.90;;
64186;SDS011;50491;39.484;-8.540;2023-06-22T13:06:50;2.88;;;1.60;;
64186;SDS011;50491;39.484;-8.540;2023-06-22T13:08:51;2.95;;;1.75;;
64186;SDS011;50491;39.484;-8.540;2023-06-22T13:10:52;2.60;;;1.63;;
64186;SDS011;50491;39.484;-8.540;2023-06-22T13:12:52;3.75;;;1.65;;
64186;SDS011;50491;39.484;-8.540;2023-06-22T13:15:00;2.35;;;1.70;;
64186;SDS011;50491;39.484;-8.540;2023-06-22T13:17:02;3.83;;;2.13;;
64186;SDS011;50491;39.484;-8.540;2023-06-22T13:19:21;3.63;;;2.13;;
64186;SDS011;50491;39.484;-8.540;2023-06-22T13:21:22;3.33;;;1.90;;
64186;SDS011;50491;39.484;-8.540;2023-06-22T13:23:23;4.38;;;1.90;;
64186;SDS011;50491;39.484;-8.540;2023-06-22T13:25:42;5.75;;;1.90;;
64186;SDS011;50491;39.484;-8.540;2023-06-22T13:27:43;6.72;;;2.40;;
64186;SDS011;50491;39.484;-8.540;2023-06-22T13:29:43;3.45;;;2.28;;
64186;SDS011;50491;39.484;-8.540;2023-06-22T13:31:44;2.92;;;1.98;;
64186;SDS011;50491;39.484;-8.540;2023-06-22T13:34:03;3.53;;;1.85;;
64186;SDS011;50491;39.484;-8.540;2023-06-22T13:36:04;3.13;;;1.85;;
64186;SDS011;50491;39.484;-8.540;2023-06-22T13:38:24;4.78;;;1.98;;
64186;SDS011;50491;39.484;-8.540;2023-06-22T13:40:43;2.97;;;1.85;;
64186;SDS011;50491;39.484;-8.540;2023-06-22T13:42:44;4.63;;;2.10;;
64186;SDS011;50491;39.484;-8.540;2023-06-22T13:45:04;3.10;;;1.67;;
64186;SDS011;50491;39.484;-8.540;2023-06-22T13:47:25;1.83;;;1.50;;
64186;SDS011;50491;39.484;-8.540;2023-06-22T13:49:26;3.65;;;1.40;;
64186;SDS011;50491;39.484;-8.540;2023-06-22T13:51:45;3.88;;;1.90;;
64186;SDS011;50491;39.484;-8.540;2023-06-22T13:54:06;2.33;;;1.65;;
64186;SDS011;50491;39.484;-8.540;2023-06-22T13:56:07;2.78;;;1.52;;
64186;SDS011;50491;39.484;-8.540;2023-06-22T13:58:25;3.67;;;1.50;;
64186;SDS011;50491;39.484;-8.540;2023-06-22T14:00:45;2.63;;;1.70;;
64186;SDS011;50491;39.484;-8.540;2023-06-22T14:02:45;1.70;;;1.30;;
64186;SDS011;50491;39.484;-8.540;2023-06-22T14:05:04;3.28;;;1.63;;
64186;SDS011;50491;39.484;-8.540;2023-06-22T14:07:25;2.70;;;1.85;;
64186;SDS011;50491;39.484;-8.540;2023-06-22T14:09:43;2.25;;;1.60;;